Time;durP1;ratioP1;P1;durP2;ratioP2;P2;SDS_P1;SDS_P2;PMS_P1;PMS_P2;Temp;Humidity;BMP_temperature;BMP_pressure;BME280_temperature;BME280_humidity;BME280_pressure;Samples;Min_cycle;Max_cycle;Signal;HPM_P1;HPM_P2
2022/05/11 00:01:46;;;;;;;1.80;1.40;;;26.90;41.50;;;;;;5061763;28;20482;-80
2022/05/11 00:04:14;;;;;;;6.20;1.90;;;26.80;41.40;;;;;;5046135;28;20484;-76
2022/05/11 00:06:42;;;;;;;1.70;1.60;;;26.80;41.40;;;;;;5061748;28;20477;-76
2022/05/11 00:09:11;;;;;;;6.03;1.93;;;26.80;41.40;;;;;;5064226;28;20519;-77
2022/05/11 00:11:42;;;;;;;1.90;1.80;;;26.80;41.50;;;;;;5064567;28;20553;-77
2022/05/11 00:14:10;;;;;;;1.70;1.70;;;26.80;41.50;;;;;;5063792;28;20489;-77
2022/05/11 00:16:38;;;;;;;1.77;1.67;;;26.70;41.40;;;;;;5063438;28;20442;-77
2022/05/11 00:19:06;;;;;;;1.60;1.57;;;26.70;41.40;;;;;;5062984;28;20421;-77
2022/05/11 00:21:34;;;;;;;1.60;1.50;;;26.70;41.50;;;;;;5060030;28;20478;-77
2022/05/11 00:24:02;;;;;;;2.60;2.00;;;26.70;41.50;;;;;;5060649;28;20521;-77
2022/05/11 00:26:29;;;;;;;3.33;2.10;;;26.70;41.40;;;;;;5061500;28;20466;-77
2022/05/11 00:28:58;;;;;;;1.60;1.50;;;26.70;41.50;;;;;;5060870;28;20513;-77
2022/05/11 00:31:26;;;;;;;2.00;1.80;;;26.60;41.50;;;;;;5061539;28;20463;-77
2022/05/11 00:33:54;;;;;;;1.73;1.63;;;26.60;41.40;;;;;;5061696;28;20462;-77
2022/05/11 00:36:22;;;;;;;2.00;1.70;;;26.60;41.50;;;;;;5061211;28;20507;-77
2022/05/11 00:38:50;;;;;;;1.77;1.67;;;26.60;41.40;;;;;;5060634;28;20490;-77
2022/05/11 00:41:18;;;;;;;2.87;1.83;;;26.60;42.00;;;;;;5058901;28;20497;-77
2022/05/11 00:43:53;;;;;;;1.80;1.70;;;26.60;41.40;;;;;;5060422;28;20528;-77
2022/05/11 00:46:28;;;;;;;2.00;1.90;;;26.60;41.40;;;;;;5053540;28;20467;-78
2022/05/11 00:51:45;;;;;;;1.67;1.67;;;26.60;41.50;;;;;;5039946;28;20562;-77
2022/05/11 00:54:14;;;;;;;1.73;1.60;;;26.60;41.50;;;;;;5040332;28;20426;-78
2022/05/11 00:56:44;;;;;;;1.87;1.80;;;26.60;41.50;;;;;;5040248;28;20447;-78
2022/05/11 00:59:13;;;;;;;3.90;1.70;;;26.60;41.50;;;;;;5055793;28;20474;-77
2022/05/11 01:01:42;;;;;;;3.17;1.70;;;26.50;41.40;;;;;;5055061;28;20470;-77
2022/05/11 01:04:11;;;;;;;1.87;1.77;;;26.50;41.40;;;;;;5059001;28;20510;-77
2022/05/11 01:06:39;;;;;;;1.70;1.60;;;26.50;41.40;;;;;;5059933;28;20470;-77
2022/05/11 01:09:07;;;;;;;1.83;1.67;;;26.50;41.40;;;;;;5059756;28;20541;-77
2022/05/11 01:11:37;;;;;;;1.47;1.47;;;26.50;41.50;;;;;;5059936;28;20471;-77
2022/05/11 01:14:06;;;;;;;2.30;1.80;;;26.50;41.40;;;;;;5059882;28;20422;-77
2022/05/11 01:16:35;;;;;;;2.50;1.60;;;26.50;41.40;;;;;;5059991;28;20454;-77
2022/05/11 01:19:04;;;;;;;1.93;1.83;;;26.50;42.10;;;;;;5060218;28;20417;-78
2022/05/11 01:21:37;;;;;;;1.83;1.73;;;26.50;41.50;;;;;;5060616;28;20529;-78
2022/05/11 01:24:22;;;;;;;3.23;1.90;;;26.40;41.40;;;;;;5054722;28;20520;-77
2022/05/11 01:26:49;;;;;;;1.80;1.70;;;26.50;41.40;;;;;;5054716;28;20433;-77
2022/05/11 01:29:17;;;;;;;2.07;1.97;;;26.40;41.40;;;;;;5054593;28;20472;-77
2022/05/11 01:31:45;;;;;;;1.93;1.83;;;26.40;41.40;;;;;;5054087;28;20457;-77
2022/05/11 01:34:13;;;;;;;1.90;1.70;;;26.40;41.50;;;;;;5047808;28;20455;-77
2022/05/11 01:36:42;;;;;;;2.47;1.80;;;26.40;41.40;;;;;;5054282;28;20468;-77
2022/05/11 01:39:10;;;;;;;2.93;1.70;;;26.40;41.50;;;;;;5054793;28;20441;-77
2022/05/11 01:41:40;;;;;;;2.00;1.90;;;26.40;41.40;;;;;;5054292;28;20445;-77
2022/05/11 01:44:09;;;;;;;2.00;1.90;;;26.40;41.50;;;;;;5055665;28;20438;-78
2022/05/11 01:46:37;;;;;;;1.90;1.60;;;26.40;41.40;;;;;;5054892;28;20778;-77
2022/05/11 01:49:06;;;;;;;2.10;1.93;;;26.40;41.40;;;;;;5053963;28;21055;-78
2022/05/11 01:51:34;;;;;;;1.70;1.60;;;26.40;41.50;;;;;;5054102;28;20440;-77
2022/05/11 01:54:02;;;;;;;2.43;1.83;;;26.40;41.40;;;;;;5055179;28;20524;-78
2022/05/11 01:56:30;;;;;;;2.40;1.53;;;26.40;41.50;;;;;;5064591;28;20482;-79
2022/05/11 01:58:59;;;;;;;1.80;1.70;;;26.40;41.40;;;;;;5065931;28;20466;-78
2022/05/11 02:01:29;;;;;;;2.00;1.90;;;26.30;41.40;;;;;;5067706;28;20448;-80
2022/05/11 02:03:57;;;;;;;1.90;1.80;;;26.30;41.50;;;;;;5067920;28;20429;-79
2022/05/11 02:09:12;;;;;;;1.70;1.60;;;26.40;41.50;;;;;;5063004;28;20489;-79
2022/05/11 02:11:40;;;;;;;1.90;1.80;;;26.30;41.50;;;;;;5070617;28;20448;-79
2022/05/11 02:14:12;;;;;;;1.90;1.80;;;26.30;41.50;;;;;;5070325;28;20413;-79
2022/05/11 02:16:40;;;;;;;1.83;1.73;;;26.30;41.40;;;;;;5064733;28;21024;-80
2022/05/11 02:19:09;;;;;;;2.30;1.90;;;26.30;41.50;;;;;;5069881;28;20467;-79
2022/05/11 02:21:37;;;;;;;1.47;1.47;;;26.30;41.50;;;;;;5068289;28;20453;-79
2022/05/11 02:24:05;;;;;;;1.87;1.70;;;26.20;41.50;;;;;;5056480;28;20507;-79
2022/05/11 02:26:34;;;;;;;1.73;1.60;;;26.30;41.40;;;;;;5047627;28;20468;-79
2022/05/11 02:29:02;;;;;;;1.70;1.70;;;26.20;41.50;;;;;;5047194;28;20473;-79
2022/05/11 02:31:32;;;;;;;1.83;1.73;;;26.30;41.60;;;;;;5047141;28;20475;-79
2022/05/11 02:34:02;;;;;;;1.80;1.70;;;26.20;41.50;;;;;;5047267;28;20414;-79
2022/05/11 02:36:32;;;;;;;1.87;1.77;;;26.20;41.40;;;;;;5047026;28;20447;-79
2022/05/11 02:39:00;;;;;;;1.90;1.80;;;26.20;41.40;;;;;;5051565;28;20461;-79
2022/05/11 02:41:28;;;;;;;1.73;1.63;;;26.20;41.50;;;;;;5054259;28;20439;-78
2022/05/11 02:43:57;;;;;;;1.80;1.70;;;26.20;41.50;;;;;;5042877;28;20433;-79
2022/05/11 02:46:25;;;;;;;1.50;1.50;;;26.20;41.40;;;;;;5047187;28;20447;-79
2022/05/11 02:48:55;;;;;;;1.93;1.83;;;26.20;41.50;;;;;;5041612;28;20538;-78
2022/05/11 02:51:24;;;;;;;1.60;1.50;;;26.20;41.60;;;;;;5041205;28;20532;-78
2022/05/11 02:53:52;;;;;;;2.00;1.90;;;26.20;41.60;;;;;;5041918;28;20473;-78
2022/05/11 02:56:20;;;;;;;5.03;1.90;;;26.20;41.50;;;;;;5060079;28;20428;-78
2022/05/11 02:58:48;;;;;;;1.67;1.57;;;26.20;41.70;;;;;;5060449;28;20454;-79
2022/05/11 03:01:16;;;;;;;1.67;1.50;;;26.20;41.50;;;;;;5059356;28;20453;-78
2022/05/11 03:03:44;;;;;;;1.73;1.63;;;26.20;41.50;;;;;;5057493;28;20445;-78
2022/05/11 03:06:13;;;;;;;1.90;1.80;;;26.20;41.60;;;;;;5058590;28;20466;-78
2022/05/11 03:08:42;;;;;;;2.00;1.90;;;26.20;41.60;;;;;;5058784;28;20478;-78
2022/05/11 03:11:11;;;;;;;2.10;1.80;;;26.20;41.60;;;;;;5057361;28;20454;-78
2022/05/11 03:13:39;;;;;;;2.43;1.80;;;26.10;41.60;;;;;;5058325;28;20421;-78
2022/05/11 03:16:07;;;;;;;1.60;1.50;;;26.20;41.60;;;;;;5058517;28;20425;-78
2022/05/11 03:18:35;;;;;;;1.80;1.70;;;26.10;41.50;;;;;;5057319;28;20445;-79
2022/05/11 03:21:03;;;;;;;1.70;1.60;;;26.10;41.60;;;;;;5056500;28;20466;-78
2022/05/11 03:23:33;;;;;;;1.80;1.70;;;26.10;41.50;;;;;;5056128;28;20453;-78
2022/05/11 03:26:01;;;;;;;2.00;1.63;;;26.10;41.60;;;;;;5059072;28;20454;-78
2022/05/11 03:28:30;;;;;;;1.63;1.53;;;26.10;41.50;;;;;;5052989;28;20455;-78
2022/05/11 03:30:58;;;;;;;1.60;1.50;;;26.10;41.50;;;;;;5039698;28;20463;-78
2022/05/11 03:36:11;;;;;;;2.30;1.97;;;26.10;41.60;;;;;;5041805;28;20527;-79
2022/05/11 03:38:41;;;;;;;2.03;1.93;;;26.10;41.50;;;;;;5040213;28;20474;-79
2022/05/11 03:41:09;;;;;;;1.93;1.83;;;26.10;41.50;;;;;;5039121;28;20467;-78
2022/05/11 03:43:37;;;;;;;1.80;1.70;;;26.10;41.50;;;;;;5048989;28;20421;-79
2022/05/11 03:46:05;;;;;;;1.57;1.47;;;26.10;41.60;;;;;;5057470;28;20438;-77
2022/05/11 03:48:33;;;;;;;2.00;1.80;;;26.00;41.50;;;;;;5057712;28;20478;-78
2022/05/11 03:51:01;;;;;;;1.73;1.63;;;26.10;41.50;;;;;;5058023;28;21054;-78
2022/05/11 03:53:29;;;;;;;1.80;1.70;;;26.00;41.60;;;;;;5066206;28;20453;-79
2022/05/11 03:55:59;;;;;;;1.57;1.57;;;26.00;41.60;;;;;;5066483;28;20445;-79
2022/05/11 03:58:27;;;;;;;1.73;1.60;;;26.00;41.60;;;;;;5065037;28;20452;-79
2022/05/11 04:00:55;;;;;;;2.00;1.60;;;26.00;41.90;;;;;;5066896;28;20437;-79
2022/05/11 04:03:23;;;;;;;6.10;1.80;;;26.00;41.60;;;;;;5067123;28;20462;-78
2022/05/11 04:05:51;;;;;;;3.73;1.70;;;26.00;41.60;;;;;;5066917;28;20413;-79
2022/05/11 04:08:19;;;;;;;1.63;1.63;;;26.00;41.60;;;;;;5066181;28;20447;-79
2022/05/11 04:10:47;;;;;;;1.80;1.70;;;26.00;41.60;;;;;;5066264;28;20470;-79
2022/05/11 04:13:17;;;;;;;1.60;1.50;;;25.90;41.70;;;;;;5067069;28;20481;-79
2022/05/11 04:15:45;;;;;;;1.87;1.77;;;25.90;41.60;;;;;;5064598;28;20460;-79
2022/05/11 04:18:13;;;;;;;1.70;1.60;;;26.00;41.80;;;;;;5051825;28;20438;-78
2022/05/11 04:20:41;;;;;;;1.83;1.73;;;26.00;41.60;;;;;;5046352;28;20434;-78
2022/05/11 04:23:09;;;;;;;1.87;1.77;;;26.00;41.60;;;;;;5047753;28;20422;-79
2022/05/11 04:25:37;;;;;;;1.77;1.67;;;26.00;41.60;;;;;;5047449;28;20421;-79
2022/05/11 04:28:08;;;;;;;2.13;2.03;;;25.90;41.50;;;;;;5046173;28;20429;-78
2022/05/11 04:30:37;;;;;;;1.93;1.70;;;25.90;41.60;;;;;;5055811;28;20477;-79
2022/05/11 04:33:05;;;;;;;2.00;1.90;;;26.00;41.60;;;;;;5065280;28;20465;-79
2022/05/11 04:35:34;;;;;;;1.83;1.73;;;25.90;41.60;;;;;;5066500;28;20424;-79
2022/05/11 04:38:02;;;;;;;2.10;2.00;;;25.90;41.50;;;;;;5066780;28;20420;-79
2022/05/11 04:40:31;;;;;;;1.70;1.70;;;25.90;41.70;;;;;;5066576;28;20436;-79
2022/05/11 04:43:00;;;;;;;1.70;1.60;;;25.90;41.70;;;;;;5066627;28;20425;-79
2022/05/11 04:45:28;;;;;;;1.77;1.67;;;26.00;41.70;;;;;;5064783;28;20454;-78
2022/05/11 04:47:58;;;;;;;3.03;2.00;;;26.00;41.60;;;;;;5066288;28;20466;-79
2022/05/11 04:50:26;;;;;;;1.87;1.77;;;26.00;41.70;;;;;;5067339;28;20444;-79
2022/05/11 04:52:54;;;;;;;1.60;1.50;;;26.00;41.50;;;;;;5069368;28;20460;-79
2022/05/11 04:55:22;;;;;;;2.47;1.93;;;26.00;41.60;;;;;;5070200;28;20450;-79
2022/05/11 04:57:50;;;;;;;1.87;1.77;;;25.90;41.60;;;;;;5070474;28;20450;-79
2022/05/11 05:00:19;;;;;;;2.10;1.73;;;25.90;41.70;;;;;;5065478;28;20468;-79
2022/05/11 05:02:47;;;;;;;2.20;1.73;;;25.90;41.70;;;;;;5060144;28;20478;-79
2022/05/11 05:05:17;;;;;;;2.47;2.37;;;26.00;41.70;;;;;;5071962;28;20428;-78
2022/05/11 05:07:45;;;;;;;2.03;1.73;;;25.90;41.50;;;;;;5069356;28;20514;-78
2022/05/11 05:10:14;;;;;;;2.10;1.97;;;25.90;41.50;;;;;;5061525;28;20494;-78
2022/05/11 05:12:42;;;;;;;2.10;1.70;;;25.90;41.60;;;;;;5055145;28;20498;-78
2022/05/11 05:15:12;;;;;;;1.80;1.70;;;26.00;41.60;;;;;;5059261;28;20430;-79
2022/05/11 05:17:40;;;;;;;2.50;1.63;;;26.00;41.60;;;;;;5059578;28;20488;-78
2022/05/11 05:20:09;;;;;;;1.80;1.80;;;26.00;41.60;;;;;;5061983;28;20444;-78
2022/05/11 05:22:38;;;;;;;4.10;1.67;;;26.00;41.60;;;;;;5062354;28;20448;-79
2022/05/11 05:25:07;;;;;;;1.73;1.63;;;26.00;41.60;;;;;;5058399;28;20443;-78
2022/05/11 05:27:37;;;;;;;1.70;1.70;;;26.00;41.50;;;;;;5058841;28;20440;-80
2022/05/11 05:32:51;;;;;;;2.03;1.93;;;26.00;41.50;;;;;;5056284;28;20570;-78
2022/05/11 05:35:20;;;;;;;1.70;1.60;;;26.00;41.70;;;;;;5056989;28;20485;-78
2022/05/11 05:37:50;;;;;;;2.00;1.90;;;26.00;41.60;;;;;;5054418;28;20443;-78
2022/05/11 05:40:18;;;;;;;1.77;1.67;;;26.00;41.50;;;;;;5043358;28;20503;-78
2022/05/11 05:42:46;;;;;;;1.90;1.80;;;26.00;41.60;;;;;;5042580;28;20454;-79
2022/05/11 05:45:14;;;;;;;1.70;1.60;;;26.00;41.50;;;;;;5042704;28;20426;-78
2022/05/11 05:47:42;;;;;;;3.07;1.30;;;26.00;41.40;;;;;;5042867;28;20483;-78
2022/05/11 05:50:10;;;;;;;1.90;1.80;;;26.10;41.50;;;;;;5042735;28;20895;-79
2022/05/11 05:52:38;;;;;;;2.20;1.93;;;26.10;41.50;;;;;;5059417;28;20454;-78
2022/05/11 05:55:09;;;;;;;1.90;1.67;;;26.00;41.40;;;;;;5062330;28;20442;-79
2022/05/11 05:57:38;;;;;;;1.57;1.53;;;26.00;41.50;;;;;;5062631;28;20470;-79
2022/05/11 06:00:08;;;;;;;1.63;1.53;;;26.00;41.60;;;;;;5062173;28;20506;-79
2022/05/11 06:02:37;;;;;;;1.70;1.60;;;26.00;41.50;;;;;;5061517;28;20475;-79
2022/05/11 06:05:06;;;;;;;1.70;1.60;;;26.10;41.50;;;;;;5062123;28;20467;-78
2022/05/11 06:07:34;;;;;;;1.87;1.77;;;26.10;41.50;;;;;;5060212;28;20436;-79
2022/05/11 06:10:03;;;;;;;1.80;1.70;;;26.10;41.40;;;;;;5061819;28;20448;-79
2022/05/11 06:12:33;;;;;;;1.70;1.60;;;26.10;41.30;;;;;;5062140;28;20541;-79
2022/05/11 06:15:02;;;;;;;1.77;1.67;;;26.10;41.30;;;;;;5061954;28;20441;-78
2022/05/11 06:17:31;;;;;;;2.00;1.57;;;26.10;41.40;;;;;;5061662;28;20470;-78
2022/05/11 06:19:59;;;;;;;1.63;1.53;;;26.20;41.40;;;;;;5061564;28;20521;-78
2022/05/11 06:22:27;;;;;;;1.73;1.63;;;26.20;41.20;;;;;;5062003;28;20486;-78
2022/05/11 06:24:55;;;;;;;2.03;1.90;;;26.20;41.40;;;;;;5059273;28;20453;-79
2022/05/11 06:27:24;;;;;;;1.97;1.87;;;26.10;41.20;;;;;;5060412;28;20473;-79
2022/05/11 06:29:54;;;;;;;2.30;2.20;;;26.20;41.40;;;;;;5061080;28;20470;-79
2022/05/11 06:32:23;;;;;;;2.20;1.77;;;26.20;41.30;;;;;;5061298;28;20523;-79
2022/05/11 06:34:52;;;;;;;3.17;1.90;;;26.20;41.30;;;;;;5061697;28;20449;-78
2022/05/11 06:37:20;;;;;;;1.97;1.87;;;26.20;41.20;;;;;;5060982;28;20480;-78
2022/05/11 06:39:48;;;;;;;1.90;1.80;;;26.30;41.20;;;;;;5059964;28;20490;-79
2022/05/11 06:42:16;;;;;;;2.10;1.90;;;26.30;41.10;;;;;;5058438;28;20476;-78
2022/05/11 06:44:44;;;;;;;1.70;1.60;;;26.40;41.10;;;;;;5060180;28;20443;-78
2022/05/11 06:47:13;;;;;;;1.93;1.83;;;26.40;41.00;;;;;;5060704;28;20507;-78
2022/05/11 06:49:41;;;;;;;1.90;1.80;;;26.30;41.00;;;;;;5059988;28;20466;-78
2022/05/11 06:52:10;;;;;;;1.77;1.67;;;26.20;41.00;;;;;;5060529;28;20470;-78
2022/05/11 07:00:16;;;;;;;1.70;1.60;;;26.30;41.10;;;;;;5058454;28;20573;-79
2022/05/11 07:02:45;;;;;;;2.10;2.00;;;26.30;41.00;;;;;;5042602;28;20505;-80
2022/05/11 07:05:13;;;;;;;1.80;1.80;;;26.40;41.10;;;;;;5040068;28;20578;-78
2022/05/11 07:07:42;;;;;;;1.90;1.80;;;26.50;41.10;;;;;;5041265;28;20450;-78
2022/05/11 07:10:10;;;;;;;1.70;1.60;;;26.50;40.80;;;;;;5041274;28;20486;-79
2022/05/11 07:12:45;;;;;;;2.07;1.97;;;26.60;40.90;;;;;;5041556;28;20443;-78
2022/05/11 07:15:15;;;;;;;1.70;1.60;;;26.60;40.80;;;;;;5040703;28;20477;-79
2022/05/11 07:17:52;;;;;;;1.90;1.80;;;26.60;40.70;;;;;;5053230;28;20460;-79
2022/05/11 07:20:22;;;;;;;1.70;1.60;;;26.60;40.60;;;;;;5060288;28;20526;-79
2022/05/11 07:22:50;;;;;;;1.57;1.57;;;26.70;40.70;;;;;;5059904;28;20438;-79
2022/05/11 07:25:19;;;;;;;3.20;2.20;;;26.70;40.60;;;;;;5051686;28;20508;-78
2022/05/11 07:27:47;;;;;;;1.80;1.70;;;26.70;40.40;;;;;;5054004;28;20818;-78
2022/05/11 07:30:16;;;;;;;1.97;1.83;;;26.80;40.50;;;;;;5053851;28;20471;-78
2022/05/11 07:32:44;;;;;;;1.93;1.83;;;26.80;40.40;;;;;;5053159;28;20455;-79
2022/05/11 07:35:13;;;;;;;3.23;1.77;;;26.80;40.30;;;;;;5053754;28;20477;-78
2022/05/11 07:37:41;;;;;;;2.10;1.90;;;26.90;40.40;;;;;;5054065;28;20514;-78
2022/05/11 07:40:11;;;;;;;1.80;1.70;;;27.00;40.40;;;;;;5054440;28;20466;-78
2022/05/11 07:42:46;;;;;;;2.00;1.90;;;27.00;40.30;;;;;;5053447;28;21043;-78
2022/05/11 07:45:15;;;;;;;1.90;1.80;;;27.10;40.10;;;;;;5053820;28;20417;-78
2022/05/11 07:47:43;;;;;;;1.93;1.80;;;27.00;40.10;;;;;;5054118;28;20484;-78
2022/05/11 07:50:14;;;;;;;2.10;2.00;;;27.00;40.20;;;;;;5052921;28;20502;-78
2022/05/11 07:52:42;;;;;;;1.90;1.80;;;27.00;40.20;;;;;;5055096;28;20446;-79
2022/05/11 07:55:09;;;;;;;2.00;1.90;;;27.10;40.10;;;;;;5056033;28;20474;-78
2022/05/11 08:00:23;;;;;;;2.37;2.17;;;27.10;39.90;;;;;;5053163;28;20487;-77
2022/05/11 08:02:56;;;;;;;2.00;1.90;;;27.20;40.00;;;;;;5054770;28;20919;-77
2022/05/11 08:05:26;;;;;;;2.67;1.93;;;27.30;39.90;;;;;;5054401;28;20446;-78
2022/05/11 08:07:55;;;;;;;2.10;2.00;;;27.50;39.80;;;;;;5055843;28;20542;-78
2022/05/11 08:10:24;;;;;;;3.63;1.77;;;27.50;39.50;;;;;;5056704;28;20525;-78
2022/05/11 08:12:53;;;;;;;1.77;1.67;;;27.60;39.50;;;;;;5055696;28;20443;-78
2022/05/11 08:15:22;;;;;;;1.80;1.70;;;27.60;39.50;;;;;;5057085;28;20558;-78
2022/05/11 08:17:50;;;;;;;2.13;2.03;;;27.60;39.30;;;;;;5057745;28;20529;-78
2022/05/11 08:20:21;;;;;;;1.73;1.63;;;27.70;39.40;;;;;;5056858;28;20538;-78
2022/05/11 08:22:51;;;;;;;3.50;1.70;;;27.80;39.20;;;;;;5056049;28;20465;-77
2022/05/11 08:25:20;;;;;;;2.00;1.90;;;27.90;39.70;;;;;;5056846;28;20438;-78
2022/05/11 08:27:48;;;;;;;1.90;1.80;;;28.00;38.80;;;;;;5060396;28;20507;-78
2022/05/11 08:36:16;;;;;;;1.77;1.67;;;28.20;38.30;;;;;;5056815;28;20842;-78
2022/05/11 08:38:46;;;;;;;2.00;1.90;;;28.30;38.10;;;;;;5060198;28;20512;-78
2022/05/11 08:41:20;;;;;;;2.03;1.90;;;28.30;38.00;;;;;;5063696;28;20506;-78
2022/05/11 08:43:48;;;;;;;1.90;1.80;;;28.40;38.00;;;;;;5069633;28;20445;-78
2022/05/11 08:46:21;;;;;;;2.10;1.90;;;28.40;38.00;;;;;;5070698;28;20411;-79
2022/05/11 08:48:55;;;;;;;2.40;1.80;;;28.40;38.10;;;;;;5069993;28;20462;-78
2022/05/11 08:51:31;;;;;;;2.13;2.03;;;28.50;38.00;;;;;;5068677;28;20449;-78
2022/05/11 08:54:08;;;;;;;1.80;1.70;;;28.60;37.70;;;;;;5069227;28;20421;-78
2022/05/11 08:56:37;;;;;;;1.67;1.67;;;28.60;37.70;;;;;;5068319;28;20453;-78
2022/05/11 08:59:14;;;;;;;1.67;1.57;;;28.70;37.60;;;;;;5054769;28;20463;-78
2022/05/11 09:01:47;;;;;;;1.93;1.80;;;28.80;37.70;;;;;;5050041;28;20433;-78
2022/05/11 09:04:18;;;;;;;1.83;1.70;;;28.80;37.40;;;;;;5050121;28;20447;-79
2022/05/11 09:06:46;;;;;;;1.90;1.80;;;28.70;37.30;;;;;;5049855;28;20443;-78
2022/05/11 09:09:16;;;;;;;1.90;1.80;;;28.70;37.50;;;;;;5062219;28;20462;-78
2022/05/11 09:11:47;;;;;;;1.90;1.80;;;28.80;37.70;;;;;;5068339;28;20462;-78
2022/05/11 09:14:16;;;;;;;2.00;1.90;;;28.80;37.40;;;;;;5069936;28;20449;-78
2022/05/11 09:16:46;;;;;;;1.73;1.63;;;28.90;37.70;;;;;;5070845;28;20513;-79
2022/05/11 09:19:17;;;;;;;4.40;1.83;;;28.90;37.50;;;;;;5066828;28;20465;-78
2022/05/11 09:21:49;;;;;;;1.60;1.60;;;29.00;37.60;;;;;;5066561;28;20446;-78
2022/05/11 09:24:27;;;;;;;5.07;2.03;;;29.10;37.20;;;;;;5066937;28;20437;-79
2022/05/11 09:27:04;;;;;;;2.03;1.50;;;29.10;37.30;;;;;;5066873;28;20446;-79
2022/05/11 09:29:34;;;;;;;2.00;1.90;;;29.20;37.10;;;;;;5054394;28;20480;-79
2022/05/11 09:32:24;;;;;;;1.90;1.80;;;29.20;36.90;;;;;;5071062;28;20502;-79
2022/05/11 09:34:52;;;;;;;4.13;2.13;;;29.30;36.70;;;;;;5070339;28;20454;-80
2022/05/11 09:37:30;;;;;;;2.20;2.10;;;29.30;36.70;;;;;;5069292;28;20443;-78
2022/05/11 09:40:10;;;;;;;2.00;1.90;;;29.30;36.60;;;;;;5067357;28;20458;-79
2022/05/11 09:42:49;;;;;;;1.67;1.57;;;29.40;37.00;;;;;;5062747;28;20446;-78
2022/05/11 09:45:39;;;;;;;3.00;2.17;;;29.40;36.90;;;;;;5058680;28;20516;-78
2022/05/11 09:48:18;;;;;;;2.90;1.90;;;29.30;37.10;;;;;;5041542;28;20432;-78
2022/05/11 09:50:47;;;;;;;4.60;1.73;;;29.30;37.00;;;;;;5040865;28;20494;-79
2022/05/11 09:53:25;;;;;;;14.20;2.50;;;29.30;37.20;;;;;;5056772;28;20506;-78
2022/05/11 09:55:54;;;;;;;4.67;1.90;;;29.40;37.50;;;;;;5039237;28;20542;-78
2022/05/11 09:58:30;;;;;;;3.60;1.70;;;29.40;37.60;;;;;;5039134;28;20493;-78
2022/05/11 10:01:09;;;;;;;4.67;1.97;;;29.30;37.40;;;;;;5036164;28;20498;-77
2022/05/11 10:03:39;;;;;;;6.80;1.90;;;29.20;37.40;;;;;;5036612;28;20506;-78
2022/05/11 10:06:08;;;;;;;2.27;1.97;;;29.20;37.60;;;;;;5036006;28;20926;-77
2022/05/11 10:08:36;;;;;;;4.43;2.07;;;29.20;37.60;;;;;;5034320;28;20507;-80
2022/05/11 10:11:07;;;;;;;3.27;1.57;;;29.30;37.50;;;;;;5033972;28;20498;-79
2022/05/11 10:13:36;;;;;;;4.40;2.30;;;29.30;37.60;;;;;;5034053;28;20433;-78
2022/05/11 10:21:53;;;;;;;4.43;2.40;;;29.40;37.50;;;;;;5034237;28;20486;-79
2022/05/11 10:24:56;;;;;;;4.63;2.10;;;29.50;37.90;;;;;;5033983;28;20454;-79
2022/05/11 10:27:29;;;;;;;4.37;2.03;;;29.50;37.60;;;;;;5031170;28;20533;-79
2022/05/11 10:30:03;;;;;;;3.60;1.93;;;29.50;37.70;;;;;;5033320;28;20719;-79
2022/05/11 10:32:41;;;;;;;6.10;2.50;;;29.50;37.70;;;;;;5032895;28;20458;-79
2022/05/11 10:35:12;;;;;;;9.43;2.60;;;29.60;37.70;;;;;;5033316;28;20744;-79
2022/05/11 10:37:58;;;;;;;3.37;2.07;;;29.70;37.80;;;;;;5033064;28;20519;-79
2022/05/11 10:40:29;;;;;;;4.90;2.03;;;29.70;37.30;;;;;;5033682;28;20555;-78
2022/05/11 10:43:07;;;;;;;6.23;2.33;;;29.90;37.50;;;;;;5033982;28;20561;-79
2022/05/11 10:45:39;;;;;;;5.57;2.30;;;30.20;37.20;;;;;;5033326;28;20934;-79
2022/05/11 10:48:16;;;;;;;6.10;2.10;;;30.20;36.70;;;;;;5032631;28;20487;-79
2022/05/11 10:50:50;;;;;;;3.13;2.10;;;30.20;36.80;;;;;;5036328;28;20546;-79
2022/05/11 10:53:23;;;;;;;3.83;1.93;;;30.20;36.90;;;;;;5036900;28;20474;-79
2022/05/11 10:56:02;;;;;;;3.50;1.80;;;30.60;36.70;;;;;;5037448;28;20471;-79
2022/05/11 10:58:43;;;;;;;5.30;2.17;;;30.60;36.40;;;;;;5037798;28;20542;-79
2022/05/11 11:01:12;;;;;;;7.90;2.30;;;30.80;36.40;;;;;;5037172;28;20463;-79
2022/05/11 11:04:05;;;;;;;5.00;2.00;;;31.00;35.90;;;;;;5037667;28;20573;-79
2022/05/11 11:09:30;;;;;;;4.00;1.90;;;31.20;35.50;;;;;;5038930;28;20498;-79
2022/05/11 11:12:01;;;;;;;2.27;1.90;;;31.50;35.50;;;;;;5039255;28;20503;-80
2022/05/11 11:14:32;;;;;;;3.00;1.90;;;31.80;35.10;;;;;;5035985;28;20453;-79
2022/05/11 11:17:05;;;;;;;3.77;2.17;;;32.10;34.10;;;;;;5033693;28;20562;-79
2022/05/11 11:19:33;;;;;;;3.33;2.10;;;32.70;34.10;;;;;;5038310;28;20467;-80
2022/05/11 11:22:01;;;;;;;2.30;1.77;;;33.40;32.50;;;;;;5038908;28;20475;-80
2022/05/11 11:24:30;;;;;;;2.77;1.80;;;34.40;31.70;;;;;;5035541;28;20458;-79
2022/05/11 11:26:59;;;;;;;4.37;2.00;;;35.30;30.40;;;;;;5035050;28;21033;-79
2022/05/11 11:29:30;;;;;;;1.90;1.50;;;36.20;29.50;;;;;;5034782;28;20567;-80
2022/05/11 11:32:21;;;;;;;1.80;1.70;;;37.00;28.50;;;;;;5035064;28;20542;-80
2022/05/11 11:34:50;;;;;;;2.80;1.63;;;38.00;27.80;;;;;;5035978;28;20470;-79
2022/05/11 11:37:41;;;;;;;2.17;1.90;;;38.90;26.80;;;;;;5036434;28;20523;-79
2022/05/11 11:40:23;;;;;;;2.37;1.50;;;38.90;25.60;;;;;;5034512;28;20537;-77
2022/05/11 11:42:51;;;;;;;2.00;1.60;;;38.20;26.80;;;;;;5051169;28;20504;-79
2022/05/11 11:46:08;;;;;;;1.67;1.57;;;38.70;27.00;;;;;;5048716;28;20442;-79
2022/05/11 11:48:40;;;;;;;2.00;1.80;;;37.90;26.40;;;;;;5050058;28;20438;-79
2022/05/11 11:51:13;;;;;;;4.60;1.67;;;38.70;26.80;;;;;;5050953;28;20736;-79
2022/05/11 11:53:53;;;;;;;2.10;1.60;;;39.10;25.90;;;;;;5052162;28;20448;-80
2022/05/11 11:56:37;;;;;;;2.70;1.60;;;39.50;26.00;;;;;;5049835;28;20474;-81
2022/05/11 11:59:12;;;;;;;1.87;1.47;;;40.50;25.30;;;;;;5044521;28;20471;-80
2022/05/11 12:01:41;;;;;;;1.30;1.20;;;41.40;24.60;;;;;;5041702;28;20525;-80
2022/05/11 12:04:17;;;;;;;2.40;1.40;;;41.80;24.00;;;;;;5050556;28;20458;-80
2022/05/11 12:15:12;;;;;;;1.47;1.37;;;43.00;22.90;;;;;;5051856;28;20544;-80
2022/05/11 12:17:40;;;;;;;2.37;1.33;;;43.20;22.70;;;;;;5050484;28;20475;-78
2022/05/11 12:20:13;;;;;;;2.20;1.40;;;43.30;22.50;;;;;;5046941;28;20587;-78
2022/05/11 12:22:45;;;;;;;1.13;1.13;;;43.30;22.50;;;;;;5047604;28;20937;-79
2022/05/11 12:25:23;;;;;;;2.63;1.60;;;43.40;22.50;;;;;;5052663;28;20446;-79
2022/05/11 12:27:51;;;;;;;2.70;1.10;;;43.40;22.40;;;;;;5055475;28;20426;-80
2022/05/11 12:30:22;;;;;;;2.30;1.50;;;43.30;22.40;;;;;;5059159;28;20461;-79
2022/05/11 12:32:51;;;;;;;1.30;1.30;;;43.10;22.40;;;;;;5057993;28;20513;-80
2022/05/11 12:35:23;;;;;;;1.20;1.20;;;43.20;22.50;;;;;;5049787;28;20450;-79
2022/05/11 12:37:55;;;;;;;1.33;1.33;;;43.20;22.50;;;;;;5047783;28;20511;-80
2022/05/11 12:40:23;;;;;;;1.07;1.07;;;42.90;22.40;;;;;;5051895;28;20475;-80
2022/05/11 12:42:52;;;;;;;1.00;1.00;;;42.60;22.50;;;;;;5058646;28;20445;-79
2022/05/11 12:45:22;;;;;;;1.03;1.03;;;42.60;22.60;;;;;;5055873;28;20448;-79
2022/05/11 12:47:51;;;;;;;1.30;1.13;;;42.60;22.60;;;;;;5048017;28;20476;-80
2022/05/11 12:50:23;;;;;;;2.00;1.27;;;42.40;22.90;;;;;;5055136;28;20501;-79
2022/05/11 12:53:05;;;;;;;2.10;1.23;;;42.30;22.70;;;;;;5058131;28;20449;-79
2022/05/11 12:55:35;;;;;;;1.27;1.10;;;42.00;22.90;;;;;;5056857;28;20528;-79
2022/05/11 12:58:04;;;;;;;1.30;1.20;;;41.80;23.00;;;;;;5052312;28;20481;-80
2022/05/11 13:00:33;;;;;;;1.93;1.30;;;41.60;23.20;;;;;;5059524;28;20533;-79
2022/05/11 13:03:17;;;;;;;1.30;1.20;;;41.30;23.30;;;;;;5059740;28;20446;-80
2022/05/11 13:05:46;;;;;;;1.40;1.30;;;41.10;23.60;;;;;;5058081;28;20458;-79
2022/05/11 13:08:14;;;;;;;1.20;1.20;;;40.20;24.00;;;;;;5057339;28;20521;-79
2022/05/11 13:10:42;;;;;;;3.17;1.30;;;39.30;25.00;;;;;;5057334;28;20467;-78
2022/05/11 13:13:14;;;;;;;1.50;1.50;;;38.40;25.60;;;;;;5057103;28;20513;-79
2022/05/11 13:15:43;;;;;;;1.40;1.30;;;37.50;26.40;;;;;;5056955;28;20541;-79
2022/05/11 13:18:13;;;;;;;1.70;1.60;;;36.80;27.20;;;;;;5057373;28;20472;-78
2022/05/11 13:20:42;;;;;;;2.40;1.17;;;36.10;27.90;;;;;;5056589;28;20466;-79
2022/05/11 13:23:24;;;;;;;3.10;1.57;;;35.40;28.50;;;;;;5057094;28;20434;-79
2022/05/11 13:25:53;;;;;;;1.47;1.40;;;34.90;29.10;;;;;;5058996;28;20504;-78
2022/05/11 13:28:25;;;;;;;1.50;1.40;;;34.40;29.60;;;;;;5058320;28;20521;-78
2022/05/11 13:30:54;;;;;;;2.53;1.53;;;34.00;30.20;;;;;;5057040;28;20469;-78
2022/05/11 13:33:34;;;;;;;1.83;1.73;;;33.60;30.70;;;;;;5058605;28;20442;-78
2022/05/11 13:36:11;;;;;;;1.57;1.47;;;33.30;31.20;;;;;;5058174;28;20442;-78
2022/05/11 13:38:55;;;;;;;1.90;1.80;;;32.90;31.60;;;;;;5056094;28;20470;-79
2022/05/11 13:41:33;;;;;;;1.93;1.80;;;32.70;32.00;;;;;;5056275;28;20481;-79
2022/05/11 13:44:18;;;;;;;1.80;1.70;;;32.50;33.00;;;;;;5056764;28;20536;-77
2022/05/11 13:49:35;;;;;;;2.00;1.43;;;32.10;33.00;;;;;;5055661;28;20458;-78
2022/05/11 13:52:06;;;;;;;2.70;1.70;;;31.90;33.20;;;;;;5055460;28;20533;-79